Monday, December 18, 2017, 9:31 AM EST
Back to Local

KBLM, Belmar-farmingdale

Location: Farmingdale, NJ, United States Lat: 40.183
Local Time: 9:31 AM EST (14:31 GMT) Lon: -74.133
Time Zone: US/Eastern Elev: 157 ft

Show me the last for .
Show Decoded

2017-12-18 08:56 METAR KBLM 181356Z AUTO 32005KT 4SM BR OVC003 04/04 A3011 RMK AO2 SLP200
                 T00440039 =
2017-12-18 08:40 METAR KBLM 181340Z AUTO 31005KT 3SM BR BKN003 OVC090 04/04 A3011 RMK AO2 =
2017-12-18 08:25 METAR KBLM 181325Z AUTO 31005KT 3SM BR FEW003 OVC090 04/04 A3011 RMK AO2 =
2017-12-18 07:56 METAR KBLM 181256Z AUTO 31004KT 2 1/2SM BR FEW003 BKN042 OVC090 04/04 A3010 RMK
                 AO2 RAB04E17 SLP199 P0000 T00390039 =
2017-12-18 07:47 METAR KBLM 181247Z AUTO 33003KT 3SM BR SCT003 BKN031 OVC043 04/04 A3010 RMK AO2
                 RAB04E17 P0000 =
2017-12-18 06:56 METAR KBLM 181156Z AUTO 34004KT 5SM BR OVC055 04/04 A3011 RMK AO2 RAE1059 SLP203
                 P0000 6//// 7//// T00440039 10061 20044 56004 =
2017-12-18 06:11 METAR KBLM 181111Z AUTO 02004KT 7SM SCT026 OVC065 05/04 A3012 RMK AO2 RAE1059
                 P0000 =
2017-12-18 05:56 METAR KBLM 181056Z AUTO 36003KT 8SM -RA BKN028 OVC065 04/04 A3012 RMK AO2 RAB13
                 SLP204 P0000 T00440039 =
2017-12-18 05:54 METAR KBLM 181054Z AUTO 36003KT 9SM -RA FEW010 OVC028 05/04 A3012 RMK AO2 RAB13
                 P0000 =
2017-12-18 05:37 METAR KBLM 181037Z AUTO 33005KT 8SM -RA SCT010 BKN030 OVC038 04/03 A3012 RMK AO2
                 RAB13 P0000 =
2017-12-18 04:56 METAR KBLM 180956Z AUTO 35003KT 10SM BKN012 OVC039 06/04 A3013 RMK AO2 SLP207
                 T00610044 =
2017-12-18 03:56 METAR KBLM 180856Z AUTO 08007KT 10SM BKN010 OVC070 06/04 A3013 RMK AO2 SLP207
                 T00610044 58014 =
2017-12-18 02:56 METAR KBLM 180756Z AUTO 03005KT 10SM OVC014 06/04 A3015 RMK AO2 SLP215 T00560044
                 =
2017-12-18 01:56 METAR KBLM 180656Z AUTO 06004KT 10SM BKN012 OVC070 06/04 A3017 RMK AO2 SLP221
                 T00560039 =
2017-12-18 01:51 METAR KBLM 180651Z AUTO 06004KT 10SM SCT012 OVC070 06/04 A3017 RMK AO2 =
2017-12-18 00:56 METAR KBLM 180556Z AUTO 10006KT 10SM BKN012 OVC085 06/03 A3017 RMK AO2 SLP221
                 T00560033 10056 20022 56020 =
2017-12-17 23:56 METAR KBLM 180456Z AUTO 10005KT 10SM OVC012 05/03 A3018 RMK AO2 SLP226 T00500028
                 400501022 =
2017-12-17 22:56 METAR KBLM 180356Z AUTO 10006KT 10SM OVC014 05/03 A3021 RMK AO2 SLP236 T00500028
                 TSNO =
2017-12-17 21:56 METAR KBLM 180256Z AUTO 07004KT 10SM BKN014 04/02 A3023 RMK AO2 SLP241 T00440022
                 58008 =
2017-12-17 20:56 METAR KBLM 180156Z AUTO 07005KT 10SM OVC018 04/02 A3023 RMK AO2 SLP244 T00390017
                 =
2017-12-17 20:18 METAR KBLM 180118Z AUTO 00000KT 10SM BKN020 02/01 A3024 RMK AO2 FZRANO =
2017-12-17 19:56 METAR KBLM 180056Z AUTO 03003KT 10SM FEW018 SCT120 02/M01 A3025 RMK AO2 SLP249
                 T00221006 FZRANO =
2017-12-17 19:32 METAR KBLM 180032Z AUTO 05004KT 10SM BKN018 BKN120 03/00 A3026 RMK AO2 =
2017-12-17 18:56 METAR KBLM 172356Z AUTO 00000KT 10SM BKN120 02/M01 A3026 RMK AO2 SLP253 6////
                 T00221006 10039 20022 FZRANO =
2017-12-17 17:56 METAR KBLM 172256Z AUTO 01003KT 10SM CLR 02/M01 RMK AO2 SLPNO T00221006 FZRANO $
                 =
2017-12-17 16:56 METAR KBLM 172156Z AUTO 04003KT 10SM CLR 03/M01 A3023 RMK AO2 SLP242 T00281006 =
2017-12-17 15:56 METAR KBLM 172056Z AUTO 04004KT 10SM CLR 03/M01 A3024 RMK AO2 SLP245 6////
                 T00331006 55004 =
2017-12-17 14:56 METAR KBLM 171956Z AUTO 07005KT 10SM CLR 03/M01 A3023 RMK AO2 SLP242 T00331006 =
2017-12-17 13:56 METAR KBLM 171856Z AUTO 09004KT 10SM CLR 04/M01 A3024 RMK AO2 SLP245 T00391011 =
2017-12-17 12:56 METAR KBLM 171756Z AUTO 11005KT 10SM CLR 04/M01 A3025 RMK AO2 SLP249 T00391011
                 10050 21022 58015 =
2017-12-17 11:56 METAR KBLM 171656Z AUTO 00000KT 10SM CLR 04/M03 A3028 RMK AO2 SLP260 T00391028 =
2017-12-17 10:56 METAR KBLM 171556Z AUTO 04006KT 10SM OVC050 03/M03 A3028 RMK AO2 SLP260
                 T00281028 =
2017-12-17 09:56 METAR KBLM 171456Z AUTO 04004KT 10SM OVC050 02/M03 A3030 RMK AO2 SLP264
                 T00171033 53007 FZRANO =

Support USWX by starting your Amazon purchase here.